sensor_id;sensor_type;location;lat;lon;timestamp;P1;durP1;ratioP1;P2;durP2;ratioP2
36817;SDS011;22761;51.542;16.450;2023-06-22T00:01:36;12.30;;;11.00;;
36817;SDS011;22761;51.542;16.450;2023-06-22T00:04:05;12.20;;;11.00;;
36817;SDS011;22761;51.542;16.450;2023-06-22T00:06:33;12.40;;;11.20;;
36817;SDS011;22761;51.542;16.450;2023-06-22T00:09:01;12.00;;;10.80;;
36817;SDS011;22761;51.542;16.450;2023-06-22T00:11:29;12.50;;;11.20;;
36817;SDS011;22761;51.542;16.450;2023-06-22T00:14:00;12.10;;;11.00;;
36817;SDS011;22761;51.542;16.450;2023-06-22T00:16:29;12.50;;;11.30;;
36817;SDS011;22761;51.542;16.450;2023-06-22T00:18:59;12.90;;;11.60;;
36817;SDS011;22761;51.542;16.450;2023-06-22T00:21:29;13.80;;;12.40;;
36817;SDS011;22761;51.542;16.450;2023-06-22T00:23:57;12.70;;;11.40;;
36817;SDS011;22761;51.542;16.450;2023-06-22T00:26:26;13.60;;;12.30;;
36817;SDS011;22761;51.542;16.450;2023-06-22T00:28:54;13.60;;;12.30;;
36817;SDS011;22761;51.542;16.450;2023-06-22T00:31:23;12.80;;;11.60;;
36817;SDS011;22761;51.542;16.450;2023-06-22T00:33:54;13.60;;;12.30;;
36817;SDS011;22761;51.542;16.450;2023-06-22T00:36:23;14.40;;;12.20;;
36817;SDS011;22761;51.542;16.450;2023-06-22T00:38:52;13.30;;;11.90;;
36817;SDS011;22761;51.542;16.450;2023-06-22T00:41:21;13.70;;;12.40;;
36817;SDS011;22761;51.542;16.450;2023-06-22T00:43:49;15.60;;;14.20;;
36817;SDS011;22761;51.542;16.450;2023-06-22T00:46:17;13.70;;;12.10;;
36817;SDS011;22761;51.542;16.450;2023-06-22T00:48:46;15.00;;;11.80;;
36817;SDS011;22761;51.542;16.450;2023-06-22T00:51:14;13.20;;;11.90;;
36817;SDS011;22761;51.542;16.450;2023-06-22T00:53:43;13.70;;;12.30;;
36817;SDS011;22761;51.542;16.450;2023-06-22T00:56:11;14.00;;;12.40;;
36817;SDS011;22761;51.542;16.450;2023-06-22T00:58:40;15.40;;;13.90;;
36817;SDS011;22761;51.542;16.450;2023-06-22T01:01:09;16.10;;;14.50;;
36817;SDS011;22761;51.542;16.450;2023-06-22T01:03:38;15.40;;;13.90;;
36817;SDS011;22761;51.542;16.450;2023-06-22T01:06:08;13.40;;;12.10;;
36817;SDS011;22761;51.542;16.450;2023-06-22T01:11:26;14.90;;;12.60;;
36817;SDS011;22761;51.542;16.450;2023-06-22T01:14:12;13.50;;;12.20;;
36817;SDS011;22761;51.542;16.450;2023-06-22T01:16:44;14.50;;;13.10;;
36817;SDS011;22761;51.542;16.450;2023-06-22T01:22:10;13.80;;;12.50;;
36817;SDS011;22761;51.542;16.450;2023-06-22T01:27:47;14.10;;;12.70;;
36817;SDS011;22761;51.542;16.450;2023-06-22T01:30:21;14.50;;;13.00;;
36817;SDS011;22761;51.542;16.450;2023-06-22T01:32:50;14.90;;;13.50;;
36817;SDS011;22761;51.542;16.450;2023-06-22T01:35:19;16.60;;;14.80;;
36817;SDS011;22761;51.542;16.450;2023-06-22T01:37:48;16.00;;;14.50;;
36817;SDS011;22761;51.542;16.450;2023-06-22T01:40:19;14.20;;;12.70;;
36817;SDS011;22761;51.542;16.450;2023-06-22T01:42:48;14.40;;;12.90;;
36817;SDS011;22761;51.542;16.450;2023-06-22T01:45:16;14.50;;;13.20;;
36817;SDS011;22761;51.542;16.450;2023-06-22T01:47:45;14.50;;;13.00;;
36817;SDS011;22761;51.542;16.450;2023-06-22T01:50:15;14.90;;;13.10;;
36817;SDS011;22761;51.542;16.450;2023-06-22T01:52:44;13.90;;;12.50;;
36817;SDS011;22761;51.542;16.450;2023-06-22T01:55:12;13.60;;;12.30;;
36817;SDS011;22761;51.542;16.450;2023-06-22T01:57:41;13.80;;;12.40;;
36817;SDS011;22761;51.542;16.450;2023-06-22T02:00:11;14.20;;;12.70;;
36817;SDS011;22761;51.542;16.450;2023-06-22T02:02:56;13.40;;;12.00;;
36817;SDS011;22761;51.542;16.450;2023-06-22T02:05:46;14.90;;;13.40;;
36817;SDS011;22761;51.542;16.450;2023-06-22T02:08:30;15.40;;;12.30;;
36817;SDS011;22761;51.542;16.450;2023-06-22T02:11:02;15.60;;;12.40;;
36817;SDS011;22761;51.542;16.450;2023-06-22T02:13:30;14.90;;;13.40;;
36817;SDS011;22761;51.542;16.450;2023-06-22T02:16:00;15.80;;;13.90;;
36817;SDS011;22761;51.542;16.450;2023-06-22T02:18:29;15.90;;;13.70;;
36817;SDS011;22761;51.542;16.450;2023-06-22T02:20:58;15.90;;;13.20;;
36817;SDS011;22761;51.542;16.450;2023-06-22T02:23:27;17.00;;;13.50;;
36817;SDS011;22761;51.542;16.450;2023-06-22T02:25:56;15.60;;;14.00;;
36817;SDS011;22761;51.542;16.450;2023-06-22T02:28:24;15.20;;;13.70;;
36817;SDS011;22761;51.542;16.450;2023-06-22T02:30:53;16.60;;;14.30;;
36817;SDS011;22761;51.542;16.450;2023-06-22T02:33:22;15.50;;;13.90;;
36817;SDS011;22761;51.542;16.450;2023-06-22T02:35:50;17.00;;;13.60;;
36817;SDS011;22761;51.542;16.450;2023-06-22T02:38:22;14.60;;;13.10;;
36817;SDS011;22761;51.542;16.450;2023-06-22T02:40:52;15.40;;;13.80;;
36817;SDS011;22761;51.542;16.450;2023-06-22T02:43:20;16.80;;;15.10;;
36817;SDS011;22761;51.542;16.450;2023-06-22T02:45:49;16.50;;;14.80;;
36817;SDS011;22761;51.542;16.450;2023-06-22T02:48:17;16.30;;;14.60;;
36817;SDS011;22761;51.542;16.450;2023-06-22T02:50:46;18.80;;;15.20;;
36817;SDS011;22761;51.542;16.450;2023-06-22T02:53:14;16.70;;;15.00;;
36817;SDS011;22761;51.542;16.450;2023-06-22T02:55:46;18.10;;;15.90;;
36817;SDS011;22761;51.542;16.450;2023-06-22T02:58:14;17.80;;;15.90;;
36817;SDS011;22761;51.542;16.450;2023-06-22T03:00:43;19.40;;;16.00;;
36817;SDS011;22761;51.542;16.450;2023-06-22T03:03:12;17.00;;;15.30;;
36817;SDS011;22761;51.542;16.450;2023-06-22T03:05:40;17.90;;;16.10;;
36817;SDS011;22761;51.542;16.450;2023-06-22T03:08:09;18.00;;;16.20;;
36817;SDS011;22761;51.542;16.450;2023-06-22T03:10:37;18.50;;;16.60;;
36817;SDS011;22761;51.542;16.450;2023-06-22T03:13:06;19.70;;;17.60;;
36817;SDS011;22761;51.542;16.450;2023-06-22T03:15:34;19.30;;;17.40;;
36817;SDS011;22761;51.542;16.450;2023-06-22T03:18:03;19.80;;;17.80;;
36817;SDS011;22761;51.542;16.450;2023-06-22T03:20:31;20.60;;;18.00;;
36817;SDS011;22761;51.542;16.450;2023-06-22T03:23:01;20.10;;;18.10;;
36817;SDS011;22761;51.542;16.450;2023-06-22T03:25:30;20.20;;;18.30;;
36817;SDS011;22761;51.542;16.450;2023-06-22T03:27:58;20.30;;;18.20;;
36817;SDS011;22761;51.542;16.450;2023-06-22T03:30:27;21.20;;;19.00;;
36817;SDS011;22761;51.542;16.450;2023-06-22T03:32:56;20.90;;;18.70;;
36817;SDS011;22761;51.542;16.450;2023-06-22T03:35:25;22.40;;;20.10;;
36817;SDS011;22761;51.542;16.450;2023-06-22T03:37:53;21.70;;;19.10;;
36817;SDS011;22761;51.542;16.450;2023-06-22T03:40:22;21.40;;;19.20;;
36817;SDS011;22761;51.542;16.450;2023-06-22T03:42:51;22.10;;;19.60;;
36817;SDS011;22761;51.542;16.450;2023-06-22T03:45:22;20.90;;;18.90;;
36817;SDS011;22761;51.542;16.450;2023-06-22T03:47:50;22.20;;;19.30;;
36817;SDS011;22761;51.542;16.450;2023-06-22T03:50:18;20.90;;;18.90;;
36817;SDS011;22761;51.542;16.450;2023-06-22T03:52:48;22.70;;;20.60;;
36817;SDS011;22761;51.542;16.450;2023-06-22T03:55:16;21.40;;;18.80;;
36817;SDS011;22761;51.542;16.450;2023-06-22T03:57:45;21.70;;;18.80;;
36817;SDS011;22761;51.542;16.450;2023-06-22T04:00:13;22.40;;;20.10;;
36817;SDS011;22761;51.542;16.450;2023-06-22T04:02:43;22.40;;;19.30;;
36817;SDS011;22761;51.542;16.450;2023-06-22T04:05:12;22.50;;;20.20;;
36817;SDS011;22761;51.542;16.450;2023-06-22T04:07:40;22.90;;;20.70;;
36817;SDS011;22761;51.542;16.450;2023-06-22T04:10:09;22.60;;;20.30;;
36817;SDS011;22761;51.542;16.450;2023-06-22T04:12:40;21.60;;;19.30;;
36817;SDS011;22761;51.542;16.450;2023-06-22T04:15:08;22.00;;;19.70;;
36817;SDS011;22761;51.542;16.450;2023-06-22T04:17:37;23.50;;;21.00;;
36817;SDS011;22761;51.542;16.450;2023-06-22T04:20:06;21.70;;;19.30;;
36817;SDS011;22761;51.542;16.450;2023-06-22T04:22:35;22.00;;;19.70;;
36817;SDS011;22761;51.542;16.450;2023-06-22T04:25:05;21.40;;;19.30;;
36817;SDS011;22761;51.542;16.450;2023-06-22T04:27:35;21.70;;;19.60;;
36817;SDS011;22761;51.542;16.450;2023-06-22T04:30:05;23.20;;;20.80;;
36817;SDS011;22761;51.542;16.450;2023-06-22T04:32:35;22.40;;;20.20;;
36817;SDS011;22761;51.542;16.450;2023-06-22T04:35:07;23.60;;;21.20;;
36817;SDS011;22761;51.542;16.450;2023-06-22T04:37:36;23.80;;;21.50;;
36817;SDS011;22761;51.542;16.450;2023-06-22T04:40:06;24.20;;;21.80;;
36817;SDS011;22761;51.542;16.450;2023-06-22T04:42:37;25.10;;;22.70;;
36817;SDS011;22761;51.542;16.450;2023-06-22T04:45:07;24.30;;;21.90;;
36817;SDS011;22761;51.542;16.450;2023-06-22T04:47:37;23.20;;;20.90;;
36817;SDS011;22761;51.542;16.450;2023-06-22T04:50:07;25.70;;;23.00;;
36817;SDS011;22761;51.542;16.450;2023-06-22T04:52:36;25.00;;;22.50;;
36817;SDS011;22761;51.542;16.450;2023-06-22T04:55:04;23.60;;;21.30;;
36817;SDS011;22761;51.542;16.450;2023-06-22T04:57:33;24.80;;;22.40;;
36817;SDS011;22761;51.542;16.450;2023-06-22T05:00:02;24.70;;;22.00;;
36817;SDS011;22761;51.542;16.450;2023-06-22T05:02:40;25.00;;;22.40;;
36817;SDS011;22761;51.542;16.450;2023-06-22T05:05:09;24.30;;;21.90;;
36817;SDS011;22761;51.542;16.450;2023-06-22T05:07:42;24.10;;;21.50;;
36817;SDS011;22761;51.542;16.450;2023-06-22T05:10:11;24.40;;;21.90;;
36817;SDS011;22761;51.542;16.450;2023-06-22T05:12:43;24.50;;;22.20;;
36817;SDS011;22761;51.542;16.450;2023-06-22T05:15:11;25.20;;;22.60;;
36817;SDS011;22761;51.542;16.450;2023-06-22T05:17:40;24.80;;;22.40;;
36817;SDS011;22761;51.542;16.450;2023-06-22T05:20:11;24.40;;;22.00;;
36817;SDS011;22761;51.542;16.450;2023-06-22T05:22:40;24.90;;;22.40;;
36817;SDS011;22761;51.542;16.450;2023-06-22T05:25:11;24.10;;;21.60;;
36817;SDS011;22761;51.542;16.450;2023-06-22T05:27:41;24.30;;;22.00;;
36817;SDS011;22761;51.542;16.450;2023-06-22T05:30:09;24.40;;;21.80;;
36817;SDS011;22761;51.542;16.450;2023-06-22T05:32:39;24.90;;;22.30;;
36817;SDS011;22761;51.542;16.450;2023-06-22T05:35:07;23.50;;;21.10;;
36817;SDS011;22761;51.542;16.450;2023-06-22T05:37:36;23.50;;;21.10;;
36817;SDS011;22761;51.542;16.450;2023-06-22T05:40:05;23.90;;;21.60;;
36817;SDS011;22761;51.542;16.450;2023-06-22T05:45:03;21.70;;;19.30;;
36817;SDS011;22761;51.542;16.450;2023-06-22T05:47:32;23.00;;;20.70;;
36817;SDS011;22761;51.542;16.450;2023-06-22T05:50:00;20.80;;;18.80;;
36817;SDS011;22761;51.542;16.450;2023-06-22T05:52:29;20.40;;;18.00;;
36817;SDS011;22761;51.542;16.450;2023-06-22T05:54:57;19.80;;;17.80;;
36817;SDS011;22761;51.542;16.450;2023-06-22T05:57:25;19.40;;;17.60;;
36817;SDS011;22761;51.542;16.450;2023-06-22T05:59:54;21.80;;;19.20;;
36817;SDS011;22761;51.542;16.450;2023-06-22T06:02:22;21.70;;;18.60;;
36817;SDS011;22761;51.542;16.450;2023-06-22T06:04:50;21.00;;;18.90;;
36817;SDS011;22761;51.542;16.450;2023-06-22T06:07:21;19.50;;;17.50;;
36817;SDS011;22761;51.542;16.450;2023-06-22T06:09:49;19.70;;;17.60;;
36817;SDS011;22761;51.542;16.450;2023-06-22T06:12:18;18.40;;;16.70;;
36817;SDS011;22761;51.542;16.450;2023-06-22T06:14:46;19.30;;;17.00;;
36817;SDS011;22761;51.542;16.450;2023-06-22T06:17:15;18.40;;;16.50;;
36817;SDS011;22761;51.542;16.450;2023-06-22T06:19:43;17.40;;;15.80;;
36817;SDS011;22761;51.542;16.450;2023-06-22T06:22:11;18.20;;;16.50;;
36817;SDS011;22761;51.542;16.450;2023-06-22T06:24:40;17.80;;;16.10;;
36817;SDS011;22761;51.542;16.450;2023-06-22T06:27:08;16.80;;;15.20;;
36817;SDS011;22761;51.542;16.450;2023-06-22T06:29:36;15.80;;;14.10;;
36817;SDS011;22761;51.542;16.450;2023-06-22T06:32:05;15.20;;;13.60;;
36817;SDS011;22761;51.542;16.450;2023-06-22T06:34:34;14.20;;;12.70;;
36817;SDS011;22761;51.542;16.450;2023-06-22T06:37:02;14.00;;;12.60;;
36817;SDS011;22761;51.542;16.450;2023-06-22T06:39:31;14.70;;;13.10;;
36817;SDS011;22761;51.542;16.450;2023-06-22T06:41:59;13.60;;;12.10;;
36817;SDS011;22761;51.542;16.450;2023-06-22T06:44:27;14.30;;;12.80;;
36817;SDS011;22761;51.542;16.450;2023-06-22T06:46:56;14.30;;;12.90;;
36817;SDS011;22761;51.542;16.450;2023-06-22T06:49:24;13.00;;;11.80;;
36817;SDS011;22761;51.542;16.450;2023-06-22T06:51:52;13.60;;;12.30;;
36817;SDS011;22761;51.542;16.450;2023-06-22T06:54:21;14.40;;;13.00;;
36817;SDS011;22761;51.542;16.450;2023-06-22T06:56:50;14.60;;;13.10;;
36817;SDS011;22761;51.542;16.450;2023-06-22T06:59:18;14.30;;;12.90;;
36817;SDS011;22761;51.542;16.450;2023-06-22T07:01:46;17.20;;;13.20;;
36817;SDS011;22761;51.542;16.450;2023-06-22T07:04:17;14.80;;;13.30;;
36817;SDS011;22761;51.542;16.450;2023-06-22T07:06:45;13.60;;;12.30;;
36817;SDS011;22761;51.542;16.450;2023-06-22T07:09:14;14.50;;;12.80;;
36817;SDS011;22761;51.542;16.450;2023-06-22T07:11:42;13.90;;;12.50;;
36817;SDS011;22761;51.542;16.450;2023-06-22T07:14:10;13.60;;;12.30;;
36817;SDS011;22761;51.542;16.450;2023-06-22T07:16:39;13.60;;;11.70;;
36817;SDS011;22761;51.542;16.450;2023-06-22T07:19:07;13.30;;;11.70;;
36817;SDS011;22761;51.542;16.450;2023-06-22T07:21:37;13.60;;;12.30;;
36817;SDS011;22761;51.542;16.450;2023-06-22T07:24:06;21.00;;;12.60;;
36817;SDS011;22761;51.542;16.450;2023-06-22T07:26:34;14.60;;;12.80;;
36817;SDS011;22761;51.542;16.450;2023-06-22T07:29:03;14.10;;;12.70;;
36817;SDS011;22761;51.542;16.450;2023-06-22T07:31:32;12.70;;;11.60;;
36817;SDS011;22761;51.542;16.450;2023-06-22T07:34:00;12.90;;;11.70;;
36817;SDS011;22761;51.542;16.450;2023-06-22T07:36:28;13.70;;;11.60;;
36817;SDS011;22761;51.542;16.450;2023-06-22T07:38:58;14.10;;;11.70;;
36817;SDS011;22761;51.542;16.450;2023-06-22T07:41:26;12.50;;;11.40;;
36817;SDS011;22761;51.542;16.450;2023-06-22T07:43:55;12.10;;;10.80;;
36817;SDS011;22761;51.542;16.450;2023-06-22T07:46:23;12.30;;;11.10;;
36817;SDS011;22761;51.542;16.450;2023-06-22T07:48:51;12.90;;;11.50;;
36817;SDS011;22761;51.542;16.450;2023-06-22T07:51:23;11.90;;;10.80;;
36817;SDS011;22761;51.542;16.450;2023-06-22T07:53:52;12.80;;;10.50;;
36817;SDS011;22761;51.542;16.450;2023-06-22T07:56:20;13.20;;;10.70;;
36817;SDS011;22761;51.542;16.450;2023-06-22T07:58:49;12.30;;;11.10;;
36817;SDS011;22761;51.542;16.450;2023-06-22T08:01:17;12.20;;;11.00;;
36817;SDS011;22761;51.542;16.450;2023-06-22T08:03:49;12.60;;;11.40;;
36817;SDS011;22761;51.542;16.450;2023-06-22T08:06:18;12.60;;;11.40;;
36817;SDS011;22761;51.542;16.450;2023-06-22T08:08:46;13.80;;;12.50;;
36817;SDS011;22761;51.542;16.450;2023-06-22T08:11:16;12.90;;;10.60;;
36817;SDS011;22761;51.542;16.450;2023-06-22T08:13:44;11.30;;;10.40;;
36817;SDS011;22761;51.542;16.450;2023-06-22T08:16:13;12.00;;;10.80;;
36817;SDS011;22761;51.542;16.450;2023-06-22T08:18:41;12.00;;;10.80;;
36817;SDS011;22761;51.542;16.450;2023-06-22T08:21:09;12.10;;;11.00;;
36817;SDS011;22761;51.542;16.450;2023-06-22T08:23:39;11.40;;;10.40;;
36817;SDS011;22761;51.542;16.450;2023-06-22T08:26:07;13.00;;;11.40;;
36817;SDS011;22761;51.542;16.450;2023-06-22T08:28:36;11.40;;;10.30;;
36817;SDS011;22761;51.542;16.450;2023-06-22T08:31:04;12.30;;;11.00;;
36817;SDS011;22761;51.542;16.450;2023-06-22T08:33:32;10.90;;;9.70;;
36817;SDS011;22761;51.542;16.450;2023-06-22T08:36:01;11.80;;;10.50;;
36817;SDS011;22761;51.542;16.450;2023-06-22T08:38:29;12.10;;;10.90;;
36817;SDS011;22761;51.542;16.450;2023-06-22T08:40:58;11.60;;;10.50;;
36817;SDS011;22761;51.542;16.450;2023-06-22T08:43:26;14.90;;;10.60;;
36817;SDS011;22761;51.542;16.450;2023-06-22T08:45:54;11.40;;;10.40;;
36817;SDS011;22761;51.542;16.450;2023-06-22T08:48:22;12.00;;;10.50;;
36817;SDS011;22761;51.542;16.450;2023-06-22T08:50:51;11.20;;;10.20;;
36817;SDS011;22761;51.542;16.450;2023-06-22T08:53:19;10.90;;;9.90;;
36817;SDS011;22761;51.542;16.450;2023-06-22T08:55:47;10.90;;;10.00;;
36817;SDS011;22761;51.542;16.450;2023-06-22T08:58:16;11.20;;;9.80;;
36817;SDS011;22761;51.542;16.450;2023-06-22T09:00:44;10.90;;;9.90;;
36817;SDS011;22761;51.542;16.450;2023-06-22T09:03:13;11.00;;;9.50;;
36817;SDS011;22761;51.542;16.450;2023-06-22T09:05:42;11.40;;;10.00;;
36817;SDS011;22761;51.542;16.450;2023-06-22T09:08:10;11.00;;;10.00;;
36817;SDS011;22761;51.542;16.450;2023-06-22T09:10:39;10.90;;;9.90;;
36817;SDS011;22761;51.542;16.450;2023-06-22T09:13:07;11.30;;;10.30;;
36817;SDS011;22761;51.542;16.450;2023-06-22T09:15:35;9.70;;;8.90;;
36817;SDS011;22761;51.542;16.450;2023-06-22T09:18:04;10.10;;;9.00;;
36817;SDS011;22761;51.542;16.450;2023-06-22T09:20:32;10.10;;;9.10;;
36817;SDS011;22761;51.542;16.450;2023-06-22T09:23:00;9.90;;;8.80;;
36817;SDS011;22761;51.542;16.450;2023-06-22T09:25:29;8.80;;;7.90;;
36817;SDS011;22761;51.542;16.450;2023-06-22T09:27:58;8.90;;;8.10;;
36817;SDS011;22761;51.542;16.450;2023-06-22T09:30:26;8.30;;;7.50;;
36817;SDS011;22761;51.542;16.450;2023-06-22T09:32:55;7.60;;;6.80;;
36817;SDS011;22761;51.542;16.450;2023-06-22T09:35:24;7.80;;;7.10;;
36817;SDS011;22761;51.542;16.450;2023-06-22T09:37:52;7.70;;;7.00;;
36817;SDS011;22761;51.542;16.450;2023-06-22T09:40:23;7.10;;;6.00;;
36817;SDS011;22761;51.542;16.450;2023-06-22T09:42:51;7.20;;;6.60;;
36817;SDS011;22761;51.542;16.450;2023-06-22T09:45:19;7.10;;;6.40;;
36817;SDS011;22761;51.542;16.450;2023-06-22T09:47:48;9.90;;;6.70;;
36817;SDS011;22761;51.542;16.450;2023-06-22T09:50:16;7.30;;;5.70;;
36817;SDS011;22761;51.542;16.450;2023-06-22T09:52:45;7.40;;;6.20;;
36817;SDS011;22761;51.542;16.450;2023-06-22T09:55:18;6.30;;;5.60;;
36817;SDS011;22761;51.542;16.450;2023-06-22T09:57:46;6.30;;;5.70;;
36817;SDS011;22761;51.542;16.450;2023-06-22T10:00:15;5.90;;;5.40;;
36817;SDS011;22761;51.542;16.450;2023-06-22T10:02:45;6.40;;;5.40;;
36817;SDS011;22761;51.542;16.450;2023-06-22T10:05:14;7.00;;;6.30;;
36817;SDS011;22761;51.542;16.450;2023-06-22T10:07:43;6.30;;;5.70;;
36817;SDS011;22761;51.542;16.450;2023-06-22T10:13:06;7.10;;;5.80;;
36817;SDS011;22761;51.542;16.450;2023-06-22T10:15:40;6.00;;;5.40;;
36817;SDS011;22761;51.542;16.450;2023-06-22T10:18:08;7.20;;;5.30;;
36817;SDS011;22761;51.542;16.450;2023-06-22T10:20:37;6.80;;;5.40;;
36817;SDS011;22761;51.542;16.450;2023-06-22T10:23:05;6.00;;;5.50;;
36817;SDS011;22761;51.542;16.450;2023-06-22T10:25:33;6.90;;;5.60;;
36817;SDS011;22761;51.542;16.450;2023-06-22T10:28:02;7.40;;;5.60;;
36817;SDS011;22761;51.542;16.450;2023-06-22T10:30:30;6.90;;;5.70;;
36817;SDS011;22761;51.542;16.450;2023-06-22T10:32:59;5.80;;;5.30;;
36817;SDS011;22761;51.542;16.450;2023-06-22T10:35:27;7.20;;;5.90;;
36817;SDS011;22761;51.542;16.450;2023-06-22T10:37:56;6.20;;;5.60;;
36817;SDS011;22761;51.542;16.450;2023-06-22T10:40:24;6.70;;;5.40;;
36817;SDS011;22761;51.542;16.450;2023-06-22T10:42:53;5.90;;;5.20;;
36817;SDS011;22761;51.542;16.450;2023-06-22T10:45:21;6.00;;;5.40;;
36817;SDS011;22761;51.542;16.450;2023-06-22T10:47:50;6.80;;;4.90;;
36817;SDS011;22761;51.542;16.450;2023-06-22T10:50:18;5.80;;;5.00;;
36817;SDS011;22761;51.542;16.450;2023-06-22T10:52:48;6.00;;;5.00;;
36817;SDS011;22761;51.542;16.450;2023-06-22T10:55:20;4.80;;;4.30;;
36817;SDS011;22761;51.542;16.450;2023-06-22T11:00:17;5.80;;;4.70;;
36817;SDS011;22761;51.542;16.450;2023-06-22T11:02:46;5.00;;;4.50;;
36817;SDS011;22761;51.542;16.450;2023-06-22T11:05:15;5.10;;;4.60;;
36817;SDS011;22761;51.542;16.450;2023-06-22T11:07:44;5.10;;;4.70;;
36817;SDS011;22761;51.542;16.450;2023-06-22T11:10:14;5.40;;;4.40;;
36817;SDS011;22761;51.542;16.450;2023-06-22T11:12:42;4.70;;;4.30;;
36817;SDS011;22761;51.542;16.450;2023-06-22T11:15:11;5.10;;;4.40;;
36817;SDS011;22761;51.542;16.450;2023-06-22T11:17:39;5.20;;;4.70;;
36817;SDS011;22761;51.542;16.450;2023-06-22T11:20:08;4.80;;;3.90;;
36817;SDS011;22761;51.542;16.450;2023-06-22T11:22:39;4.40;;;4.10;;
36817;SDS011;22761;51.542;16.450;2023-06-22T11:25:09;4.80;;;4.20;;
36817;SDS011;22761;51.542;16.450;2023-06-22T11:27:37;6.20;;;4.20;;
36817;SDS011;22761;51.542;16.450;2023-06-22T11:30:05;4.40;;;4.10;;
36817;SDS011;22761;51.542;16.450;2023-06-22T11:32:35;4.20;;;3.80;;
36817;SDS011;22761;51.542;16.450;2023-06-22T11:35:03;5.10;;;3.80;;
36817;SDS011;22761;51.542;16.450;2023-06-22T11:37:32;4.40;;;3.90;;
36817;SDS011;22761;51.542;16.450;2023-06-22T11:40:01;4.60;;;4.20;;
36817;SDS011;22761;51.542;16.450;2023-06-22T11:42:35;5.00;;;4.00;;
36817;SDS011;22761;51.542;16.450;2023-06-22T11:45:04;4.80;;;3.70;;
36817;SDS011;22761;51.542;16.450;2023-06-22T11:47:33;5.80;;;3.70;;
36817;SDS011;22761;51.542;16.450;2023-06-22T11:52:30;6.40;;;3.60;;
36817;SDS011;22761;51.542;16.450;2023-06-22T11:55:00;4.20;;;3.90;;
36817;SDS011;22761;51.542;16.450;2023-06-22T11:57:32;4.30;;;3.90;;
36817;SDS011;22761;51.542;16.450;2023-06-22T12:00:02;3.40;;;3.20;;
36817;SDS011;22761;51.542;16.450;2023-06-22T12:02:57;4.80;;;3.30;;
36817;SDS011;22761;51.542;16.450;2023-06-22T12:05:28;3.70;;;3.40;;
36817;SDS011;22761;51.542;16.450;2023-06-22T12:07:56;3.30;;;3.00;;
36817;SDS011;22761;51.542;16.450;2023-06-22T12:10:25;4.00;;;3.60;;
36817;SDS011;22761;51.542;16.450;2023-06-22T12:12:55;3.70;;;3.40;;
36817;SDS011;22761;51.542;16.450;2023-06-22T12:17:51;4.00;;;3.60;;
36817;SDS011;22761;51.542;16.450;2023-06-22T12:20:20;4.30;;;3.60;;
36817;SDS011;22761;51.542;16.450;2023-06-22T12:22:50;3.40;;;3.20;;
36817;SDS011;22761;51.542;16.450;2023-06-22T12:25:20;5.50;;;3.30;;
36817;SDS011;22761;51.542;16.450;2023-06-22T12:27:49;3.50;;;3.10;;
36817;SDS011;22761;51.542;16.450;2023-06-22T12:30:17;3.80;;;3.50;;
36817;SDS011;22761;51.542;16.450;2023-06-22T12:32:46;3.60;;;3.40;;
36817;SDS011;22761;51.542;16.450;2023-06-22T12:37:42;3.90;;;2.90;;
36817;SDS011;22761;51.542;16.450;2023-06-22T12:42:39;4.20;;;3.20;;
36817;SDS011;22761;51.542;16.450;2023-06-22T12:45:08;3.60;;;3.30;;
36817;SDS011;22761;51.542;16.450;2023-06-22T12:47:37;3.90;;;3.50;;
36817;SDS011;22761;51.542;16.450;2023-06-22T12:50:06;3.70;;;3.40;;
36817;SDS011;22761;51.542;16.450;2023-06-22T12:52:36;4.00;;;3.70;;
36817;SDS011;22761;51.542;16.450;2023-06-22T12:55:07;6.10;;;3.90;;
36817;SDS011;22761;51.542;16.450;2023-06-22T12:57:35;4.50;;;4.10;;
36817;SDS011;22761;51.542;16.450;2023-06-22T13:00:04;5.60;;;3.50;;
36817;SDS011;22761;51.542;16.450;2023-06-22T13:02:33;4.60;;;4.10;;
36817;SDS011;22761;51.542;16.450;2023-06-22T13:07:30;4.60;;;4.10;;
36817;SDS011;22761;51.542;16.450;2023-06-22T13:09:59;3.50;;;3.20;;
36817;SDS011;22761;51.542;16.450;2023-06-22T13:12:28;4.20;;;3.60;;
36817;SDS011;22761;51.542;16.450;2023-06-22T13:14:56;4.10;;;3.70;;
36817;SDS011;22761;51.542;16.450;2023-06-22T13:17:25;4.20;;;3.80;;
36817;SDS011;22761;51.542;16.450;2023-06-22T13:19:53;4.00;;;3.60;;
36817;SDS011;22761;51.542;16.450;2023-06-22T13:25:00;4.40;;;3.90;;
36817;SDS011;22761;51.542;16.450;2023-06-22T13:27:29;3.80;;;3.50;;
36817;SDS011;22761;51.542;16.450;2023-06-22T13:29:57;4.20;;;3.80;;
36817;SDS011;22761;51.542;16.450;2023-06-22T13:32:26;8.10;;;3.40;;
36817;SDS011;22761;51.542;16.450;2023-06-22T13:34:54;5.80;;;3.90;;
36817;SDS011;22761;51.542;16.450;2023-06-22T13:37:23;3.90;;;3.50;;
36817;SDS011;22761;51.542;16.450;2023-06-22T13:39:51;4.00;;;3.40;;
36817;SDS011;22761;51.542;16.450;2023-06-22T13:42:20;4.10;;;3.50;;
36817;SDS011;22761;51.542;16.450;2023-06-22T13:44:48;4.30;;;3.40;;
36817;SDS011;22761;51.542;16.450;2023-06-22T13:47:16;4.60;;;3.50;;
36817;SDS011;22761;51.542;16.450;2023-06-22T13:52:13;4.70;;;3.80;;
36817;SDS011;22761;51.542;16.450;2023-06-22T13:54:41;3.60;;;3.30;;
36817;SDS011;22761;51.542;16.450;2023-06-22T13:59:38;3.70;;;3.30;;
36817;SDS011;22761;51.542;16.450;2023-06-22T14:04:34;4.40;;;4.00;;
36817;SDS011;22761;51.542;16.450;2023-06-22T14:09:31;4.30;;;3.90;;
36817;SDS011;22761;51.542;16.450;2023-06-22T14:12:03;3.90;;;3.50;;
36817;SDS011;22761;51.542;16.450;2023-06-22T14:14:33;5.20;;;4.10;;
36817;SDS011;22761;51.542;16.450;2023-06-22T14:17:01;3.80;;;3.50;;
36817;SDS011;22761;51.542;16.450;2023-06-22T14:19:30;4.40;;;3.80;;
36817;SDS011;22761;51.542;16.450;2023-06-22T14:21:58;5.60;;;3.70;;
36817;SDS011;22761;51.542;16.450;2023-06-22T14:24:26;5.50;;;4.10;;
36817;SDS011;22761;51.542;16.450;2023-06-22T14:27:14;4.50;;;4.10;;
36817;SDS011;22761;51.542;16.450;2023-06-22T14:32:11;4.00;;;3.60;;
36817;SDS011;22761;51.542;16.450;2023-06-22T14:34:39;6.40;;;4.20;;
36817;SDS011;22761;51.542;16.450;2023-06-22T14:37:08;4.40;;;3.90;;
36817;SDS011;22761;51.542;16.450;2023-06-22T14:39:41;5.20;;;4.00;;
36817;SDS011;22761;51.542;16.450;2023-06-22T14:42:09;4.50;;;4.00;;
36817;SDS011;22761;51.542;16.450;2023-06-22T14:44:38;4.50;;;4.10;;
36817;SDS011;22761;51.542;16.450;2023-06-22T14:47:06;4.70;;;3.80;;
36817;SDS011;22761;51.542;16.450;2023-06-22T14:54:32;3.70;;;3.40;;
36817;SDS011;22761;51.542;16.450;2023-06-22T14:57:01;5.30;;;3.60;;
36817;SDS011;22761;51.542;16.450;2023-06-22T14:59:29;4.20;;;3.10;;
36817;SDS011;22761;51.542;16.450;2023-06-22T15:01:58;3.30;;;2.90;;
36817;SDS011;22761;51.542;16.450;2023-06-22T15:04:26;3.10;;;2.60;;
36817;SDS011;22761;51.542;16.450;2023-06-22T15:06:59;3.40;;;3.10;;
36817;SDS011;22761;51.542;16.450;2023-06-22T15:14:25;4.60;;;2.90;;
36817;SDS011;22761;51.542;16.450;2023-06-22T15:16:54;3.40;;;3.10;;
36817;SDS011;22761;51.542;16.450;2023-06-22T15:19:22;5.30;;;3.50;;
36817;SDS011;22761;51.542;16.450;2023-06-22T15:24:19;3.90;;;3.20;;
36817;SDS011;22761;51.542;16.450;2023-06-22T15:26:47;3.60;;;3.30;;